createdAt,value
2022-09-12T00:00:04.417Z,1012.82
2022-09-12T00:05:02.978Z,1012.81
2022-09-12T00:10:04.259Z,1012.95
2022-09-12T00:15:06.761Z,1013.0
2022-09-12T00:20:04.318Z,1012.79
2022-09-12T00:25:02.984Z,1012.82
2022-09-12T00:30:06.240Z,1012.89
2022-09-12T00:35:03.819Z,1013.16
2022-09-12T00:40:04.235Z,1013.25
2022-09-12T00:45:03.042Z,1013.15
2022-09-12T00:50:04.222Z,1013.07
2022-09-12T00:55:03.065Z,1013.09
2022-09-12T01:00:06.308Z,1013.16
2022-09-12T01:05:03.045Z,1013.14
2022-09-12T01:10:04.132Z,1013.11
2022-09-12T01:15:03.046Z,1013.17
2022-09-12T01:20:04.144Z,1013.26
2022-09-12T01:25:03.101Z,1013.27
2022-09-12T01:30:04.941Z,1013.31
2022-09-12T01:35:03.142Z,1013.27
2022-09-12T01:40:04.238Z,1013.27
2022-09-12T01:45:03.349Z,1013.33
2022-09-12T01:50:04.077Z,1013.32
2022-09-12T01:55:05.408Z,1013.32
2022-09-12T02:00:04.540Z,1013.26
2022-09-12T02:05:03.127Z,1013.26
2022-09-12T02:10:04.003Z,1013.28
2022-09-12T02:15:02.957Z,1013.18
2022-09-12T02:20:04.253Z,1013.18
2022-09-12T02:25:02.948Z,1013.09
2022-09-12T02:30:04.354Z,1013.07
2022-09-12T02:35:03.011Z,1013.21
2022-09-12T02:40:09.080Z,1013.24
2022-09-12T02:45:03.018Z,1013.23
2022-09-12T02:50:03.966Z,1013.21
2022-09-12T02:55:02.996Z,1013.36
2022-09-12T03:00:05.629Z,1013.46
2022-09-12T03:05:02.994Z,1013.42
2022-09-12T03:10:04.334Z,1013.38
2022-09-12T03:15:02.967Z,1013.32
2022-09-12T03:20:04.055Z,1013.26
2022-09-12T03:25:02.932Z,1013.11
2022-09-12T03:30:05.520Z,1013.14
2022-09-12T03:35:02.981Z,1013.4
2022-09-12T03:40:09.012Z,1013.33
2022-09-12T03:45:03.019Z,1013.16
2022-09-12T03:50:04.051Z,1013.27
2022-09-12T03:55:02.986Z,1013.1
2022-09-12T04:00:09.305Z,1012.97
2022-09-12T04:05:02.953Z,1012.84
2022-09-12T04:10:04.203Z,1012.91
2022-09-12T04:15:02.902Z,1013.09
2022-09-12T04:20:03.928Z,1013.19
2022-09-12T04:25:02.995Z,1013.21
2022-09-12T04:30:05.003Z,1012.98
2022-09-12T04:35:03.018Z,1012.84
2022-09-12T04:40:04.108Z,1012.71
2022-09-12T04:45:02.947Z,1012.67
2022-09-12T04:50:04.021Z,1012.6
2022-09-12T04:55:02.941Z,1012.63
2022-09-12T05:00:07.171Z,1012.52
2022-09-12T05:05:02.955Z,1012.32
2022-09-12T05:10:04.083Z,1012.16
2022-09-12T05:15:03.146Z,1012.29
2022-09-12T05:20:04.051Z,1012.31
2022-09-12T05:25:02.991Z,1012.22
2022-09-12T05:30:04.995Z,1012.12
2022-09-12T05:35:02.919Z,1012.07
2022-09-12T05:40:04.007Z,1012.07
2022-09-12T05:45:02.955Z,1012.08
2022-09-12T05:50:04.001Z,1011.93
2022-09-12T05:55:02.927Z,1011.84
2022-09-12T06:00:05.231Z,1011.97
2022-09-12T06:05:02.960Z,1012.04
2022-09-12T06:10:04.116Z,1012.05
2022-09-12T06:15:02.994Z,1012.05
2022-09-12T06:20:03.965Z,1011.97
2022-09-12T06:25:02.922Z,1011.95
2022-09-12T06:30:05.985Z,1011.87
2022-09-12T06:35:02.955Z,1011.87
2022-09-12T06:40:04.154Z,1011.85
2022-09-12T06:45:02.943Z,1011.75
2022-09-12T06:50:05.072Z,1011.65
2022-09-12T06:55:02.952Z,1011.59
2022-09-12T07:00:06.205Z,1011.6
2022-09-12T07:05:02.972Z,1011.55
2022-09-12T07:10:04.059Z,1011.58
2022-09-12T07:15:03.145Z,1011.64
2022-09-12T07:20:09.070Z,1011.59
2022-09-12T07:25:02.972Z,1011.51
2022-09-12T07:30:04.311Z,1011.49
2022-09-12T07:35:02.957Z,1011.51
2022-09-12T07:40:04.028Z,1011.53
2022-09-12T07:45:03.018Z,1011.55
2022-09-12T07:50:04.043Z,1011.55
2022-09-12T07:55:03.059Z,1011.53
2022-09-12T08:00:04.748Z,1011.53
2022-09-12T08:05:02.876Z,1011.67
2022-09-12T08:10:03.985Z,1011.72
2022-09-12T08:15:02.978Z,1011.72
2022-09-12T08:20:03.990Z,1011.81
2022-09-12T08:25:03.074Z,1011.83
2022-09-12T08:30:04.583Z,1011.88
2022-09-12T08:35:03.040Z,1011.93
2022-09-12T08:40:04.020Z,1011.99
2022-09-12T08:45:02.933Z,1011.99
2022-09-12T08:50:04.079Z,1011.93
2022-09-12T08:55:02.921Z,1011.89
2022-09-12T09:00:05.128Z,1011.97
2022-09-12T09:05:02.957Z,1012.02
2022-09-12T09:10:03.958Z,1012.06
2022-09-12T09:15:02.965Z,1012.18
2022-09-12T09:20:04.100Z,1012.25
2022-09-12T09:25:03.067Z,1012.28
2022-09-12T09:30:05.223Z,1012.32
2022-09-12T09:35:02.957Z,1012.34
2022-09-12T09:40:04.099Z,1012.42
2022-09-12T09:45:03.103Z,1012.44
2022-09-12T09:50:03.972Z,1012.48
2022-09-12T09:55:03.265Z,1012.64
2022-09-12T10:00:06.044Z,1012.66
2022-09-12T10:05:03.011Z,1012.67
2022-09-12T10:10:04.025Z,1012.67
2022-09-12T10:15:03.034Z,1012.67
2022-09-12T10:20:20.235Z,1012.67
2022-09-12T10:25:03.043Z,1012.63
2022-09-12T10:30:04.238Z,1012.77
2022-09-12T10:35:02.989Z,1012.9
2022-09-12T10:40:04.325Z,1013.04
2022-09-12T10:45:02.938Z,1013.07
2022-09-12T10:50:04.083Z,1013.15
2022-09-12T10:55:03.033Z,1013.23
2022-09-12T11:00:04.419Z,1013.3
2022-09-12T11:05:02.911Z,1013.48
2022-09-12T11:10:04.024Z,1013.61
2022-09-12T11:15:02.981Z,1013.67
2022-09-12T11:20:08.981Z,1013.65
2022-09-12T11:25:02.923Z,1013.7
2022-09-12T11:30:05.682Z,1013.78
2022-09-12T11:35:02.947Z,1013.76
2022-09-12T11:40:04.075Z,1013.76
2022-09-12T11:45:02.953Z,1013.7
2022-09-12T11:50:04.150Z,1013.68
2022-09-12T11:55:03.046Z,1013.78
2022-09-12T12:00:04.720Z,1013.85
2022-09-12T12:05:02.952Z,1013.94
2022-09-12T12:10:03.930Z,1013.84
2022-09-12T12:15:02.979Z,1013.89
2022-09-12T12:20:07.612Z,1013.98
2022-09-12T12:25:02.947Z,1013.87
2022-09-12T12:30:04.007Z,1013.87
2022-09-12T12:35:03.024Z,1013.92
2022-09-12T12:40:04.171Z,1014.02
2022-09-12T12:45:02.926Z,1014.0
2022-09-12T12:50:04.023Z,1014.07
2022-09-12T12:55:03.042Z,1014.05
2022-09-12T13:00:04.227Z,1014.03
2022-09-12T13:05:03.045Z,1013.88
2022-09-12T13:10:04.128Z,1013.96
2022-09-12T13:15:02.993Z,1013.98
2022-09-12T13:20:24.026Z,1014.0
2022-09-12T13:25:03.045Z,1014.13
2022-09-12T13:30:05.192Z,1014.44
2022-09-12T13:35:02.976Z,1014.28
2022-09-12T13:40:04.173Z,1014.2
2022-09-12T13:45:03.028Z,1014.2
2022-09-12T13:50:04.148Z,1014.1
2022-09-12T13:55:03.051Z,1014.03
2022-09-12T14:00:04.626Z,1014.03
2022-09-12T14:05:02.982Z,1014.14
2022-09-12T14:10:04.022Z,1014.31
2022-09-12T14:15:02.939Z,1014.66
2022-09-12T14:20:04.177Z,1014.36
2022-09-12T14:25:02.961Z,1014.01
2022-09-12T14:30:05.923Z,1013.83
2022-09-12T14:35:02.915Z,1014.07
2022-09-12T14:40:04.367Z,1014.37
2022-09-12T14:45:04.052Z,1014.55
2022-09-12T14:50:06.286Z,1014.51
2022-09-12T14:55:02.952Z,1014.17
2022-09-12T15:00:05.119Z,1013.88
2022-09-12T15:05:03.017Z,1013.64
2022-09-12T15:10:04.225Z,1013.79
2022-09-12T15:15:02.995Z,1013.79
2022-09-12T15:20:04.079Z,1013.75
2022-09-12T15:25:03.021Z,1013.81
2022-09-12T15:30:04.797Z,1013.74
2022-09-12T15:35:03.010Z,1013.54
2022-09-12T15:40:04.190Z,1013.23
2022-09-12T15:45:04.209Z,1013.07
2022-09-12T15:50:04.240Z,1012.86
2022-09-12T15:55:03.072Z,1012.88
2022-09-12T16:00:05.646Z,1013.02
2022-09-12T16:05:03.136Z,1013.29
2022-09-12T16:10:04.173Z,1013.45
2022-09-12T16:15:03.110Z,1013.33
2022-09-12T16:20:04.130Z,1013.21
2022-09-12T16:25:03.023Z,1013.01
2022-09-12T16:30:04.285Z,1012.9
2022-09-12T16:35:03.035Z,1012.75
2022-09-12T16:40:04.230Z,1012.65
2022-09-12T16:45:03.266Z,1012.33
2022-09-12T16:50:04.149Z,1011.81
2022-09-12T16:55:02.919Z,1011.89
2022-09-12T17:00:04.937Z,1012.13
2022-09-12T17:05:03.024Z,1012.17
2022-09-12T17:10:04.099Z,1012.02
2022-09-12T17:15:03.029Z,1011.84
2022-09-12T17:20:11.059Z,1011.67
2022-09-12T17:25:02.979Z,1011.71
2022-09-12T17:30:06.205Z,1011.82
2022-09-12T17:35:03.006Z,1011.82
2022-09-12T17:40:04.141Z,1011.8
2022-09-12T17:45:02.991Z,1011.67
2022-09-12T17:50:30.661Z,1011.8
2022-09-12T17:55:02.913Z,1011.91
2022-09-12T18:00:06.195Z,1011.91
2022-09-12T18:05:03.130Z,1012.02
2022-09-12T18:10:06.251Z,1012.26
2022-09-12T18:15:03.032Z,1012.23
2022-09-12T18:20:04.129Z,1012.04
2022-09-12T18:25:03.063Z,1011.87
2022-09-12T18:30:20.430Z,1011.73
2022-09-12T18:35:03.047Z,1011.59
2022-09-12T18:40:04.296Z,1011.61
2022-09-12T18:45:03.031Z,1011.41
2022-09-12T18:50:04.088Z,1011.09
2022-09-12T18:55:03.050Z,1010.94
2022-09-12T19:05:02.985Z,1010.83
2022-09-12T19:10:04.053Z,1010.68
2022-09-12T19:15:03.037Z,1010.75
2022-09-12T19:20:04.150Z,1010.83
2022-09-12T19:25:03.114Z,1010.98
2022-09-12T19:30:06.475Z,1010.97
2022-09-12T19:35:02.959Z,1011.0
2022-09-12T19:40:04.178Z,1011.02
2022-09-12T19:45:02.960Z,1011.12
2022-09-12T19:50:05.163Z,1011.22
2022-09-12T19:55:03.047Z,1011.27
2022-09-12T20:00:06.179Z,1011.23
2022-09-12T20:05:03.060Z,1011.31
2022-09-12T20:10:04.099Z,1011.45
2022-09-12T20:15:03.127Z,1011.51
2022-09-12T20:20:04.180Z,1011.51
2022-09-12T20:25:03.028Z,1011.44
2022-09-12T20:30:04.496Z,1011.26
2022-09-12T20:35:03.021Z,1011.29
2022-09-12T20:40:04.198Z,1011.41
2022-09-12T20:45:02.958Z,1011.41
2022-09-12T20:50:04.081Z,1011.3
2022-09-12T20:55:02.995Z,1011.13
2022-09-12T21:00:07.923Z,1011.22
2022-09-12T21:05:02.982Z,1011.36
2022-09-12T21:10:04.778Z,1011.47
2022-09-12T21:15:04.708Z,1011.62
2022-09-12T21:20:10.695Z,1011.67
2022-09-12T21:25:04.106Z,1011.61
2022-09-12T21:30:05.870Z,1011.48
2022-09-12T21:35:03.065Z,1011.75
2022-09-12T21:40:07.663Z,1011.74
2022-09-12T21:45:03.047Z,1011.61
2022-09-12T21:50:06.012Z,1011.61
2022-09-12T21:55:03.980Z,1011.49
2022-09-12T22:00:07.300Z,1011.43
2022-09-12T22:05:03.597Z,1011.35
2022-09-12T22:10:08.649Z,1011.32
2022-09-12T22:15:17.700Z,1011.37
2022-09-12T22:20:12.228Z,1011.58
2022-09-12T22:25:03.053Z,1011.73
2022-09-12T22:30:06.273Z,1011.94
2022-09-12T22:35:03.073Z,1012.06
2022-09-12T22:40:05.466Z,1012.21
2022-09-12T22:45:03.017Z,1012.09
2022-09-12T22:50:04.136Z,1012.01
2022-09-12T22:55:02.981Z,1012.04
2022-09-12T23:00:06.201Z,1012.08
2022-09-12T23:05:02.993Z,1012.0
2022-09-12T23:10:04.327Z,1011.89
2022-09-12T23:15:03.113Z,1011.87
2022-09-12T23:20:04.444Z,1011.89
2022-09-12T23:25:03.031Z,1011.94
2022-09-12T23:30:06.482Z,1012.01
2022-09-12T23:35:03.168Z,1012.14
2022-09-12T23:40:04.150Z,1012.08
2022-09-12T23:45:02.918Z,1012.14
2022-09-12T23:50:04.720Z,1012.26
2022-09-12T23:55:03.044Z,1012.51
